Atlantic Elm — 9HA3054 — position and weather

sailwx.info

Track history (hours):
 
Tides and Currents Weather Stations Pressure Air Temp Water Temp Dewpoint Dewpoint Depression Visibility Wind Speed Wind Dir Waves Ship Positions

Atlantic Elm

Last reported at 2016-Dec-01 02:33 UTC. Time now 2016-Dec-02 18:13 UTC.
Position N 38°17' E 121°23'.

Length 190 m; draft 10.2 m.

Type: Ship (hazmat cat A). MMSI: 229081000.

Date/timePositionNaut miles runAvg speedWind from/ knotsBaromVisibWave heightAir tempDewpointWater temp
2016-Dec-01 02:33N 38°17' E 121°23'1212.5
2016-Dec-01 01:33N 38°24' E 121°10'1312.8
2016-Dec-01 00:33N 38°31' E 120°56'1513.1
2016-Nov-30 23:24N 38°40' E 120°40'90 6.1
2016-Nov-30 08:33N 39°54' E 119°35'0 0.0
2016-Nov-30 07:27N 39°54' E 119°35'0 0.0
2016-Nov-30 06:18N 39°54' E 119°35'0 0.0
2016-Nov-30 05:30N 39°55' E 119°35'0 0.0
2016-Nov-30 04:30N 39°54' E 119°35'0 0.0
2016-Nov-30 01:18N 39°54' E 119°35'0 0.0
2016-Nov-30 00:29N 39°55' E 119°35'0 0.0
2016-Nov-29 21:06N 39°54' E 119°35'0 0.0
2016-Nov-29 19:17N 39°54' E 119°35'0 0.0
2016-Nov-29 16:23N 39°54' E 119°35'0 0.0
2016-Nov-29 14:06N 39°54' E 119°35'0 0.0
2016-Nov-29 13:30N 39°54' E 119°35'0 0.0
2016-Nov-29 12:30N 39°54' E 119°35'0 0.0
2016-Nov-29 11:24N 39°54' E 119°35'0 0.0
2016-Nov-29 10:29N 39°54' E 119°35'0 0.0
2016-Nov-29 09:30N 39°54' E 119°35'0 0.0
2016-Nov-29 08:17N 39°54' E 119°35'0 0.0
2016-Nov-29 07:29N 39°54' E 119°35'0 0.0
2016-Nov-29 06:30N 39°54' E 119°35'0 0.0
2016-Nov-29 05:24N 39°54' E 119°35'0 0.0
2016-Nov-29 04:30N 39°54' E 119°35'0 0.0
2016-Nov-29 03:29N 39°54' E 119°35'0 0.0
2016-Nov-29 02:24N 39°54' E 119°35'0 0.0
2016-Nov-29 01:29N 39°54' E 119°35'0 0.0
2016-Nov-29 00:29N 39°54' E 119°35'0 0.0
2016-Nov-28 23:29N 39°54' E 119°35'0 0.0
2016-Nov-28 22:30N 39°54' E 119°35'0 0.0
2016-Nov-28 21:29N 39°54' E 119°35'0 0.0
2016-Nov-28 20:29N 39°54' E 119°35'0 0.0
2016-Nov-28 19:29N 39°54' E 119°35'0 0.0
2016-Nov-28 18:29N 39°54' E 119°35'0 0.0
2016-Nov-28 17:29N 39°54' E 119°35'0 0.0
2016-Nov-28 16:29N 39°55' E 119°35'0 0.0
2016-Nov-28 15:29N 39°54' E 119°35'0 0.0
2016-Nov-28 14:29N 39°54' E 119°35'0 0.0
2016-Nov-28 13:29N 39°54' E 119°35'0 0.0
2016-Nov-28 12:29N 39°54' E 119°35'0 0.0
2016-Nov-28 11:23N 39°54' E 119°35'0 0.0
2016-Nov-28 10:29N 39°54' E 119°35'0 0.0
2016-Nov-28 09:29N 39°54' E 119°35'0 0.0
2016-Nov-28 08:29N 39°54' E 119°35'0 0.2
2016-Nov-28 07:33N 39°54' E 119°35'7 6.6
2016-Nov-28 06:33N 39°49' E 119°40'3 3.0
2016-Nov-28 05:33N 39°46' E 119°42'1 0.8
2016-Nov-28 04:33N 39°47' E 119°43'1 1.1
2016-Nov-28 03:15N 39°46' E 119°45'1 1.2
2016-Nov-28 02:30N 39°46' E 119°45'5 5.0
2016-Nov-28 01:33N 39°45' E 119°51'7 7.0
2016-Nov-28 00:31N 39°46' E 120°00'9910.6
2016-Nov-27 15:13N 40°18' E 122°02'2 2.1
2016-Nov-27 14:13N 40°18' E 122°05'0 0.0
2016-Nov-27 13:31N 40°18' E 122°05'0 0.0
2016-Nov-27 11:13N 40°18' E 122°05'0 0.0
2016-Nov-27 10:13N 40°18' E 122°05'0 0.0
2016-Nov-27 09:31N 40°18' E 122°05'0 0.0
2016-Nov-27 08:13N 40°18' E 122°05'0 0.0
2016-Nov-27 07:32N 40°18' E 122°05'0 0.0
2016-Nov-25 14:13N 40°18' E 122°05'0 0.0
2016-Nov-25 07:07N 40°18' E 122°05'0 0.0
2016-Nov-25 06:25N 40°18' E 122°05'0 0.0
2016-Nov-25 03:33N 40°18' E 122°05'3 2.6
2016-Nov-25 02:30N 40°18' E 122°01'114 3.9
2016-Nov-23 21:33N 38°34' E 121°00'  
Track history (hours):
 
Tides and Currents Weather Stations Pressure Air Temp Water Temp Dewpoint Dewpoint Depression Visibility Wind Speed Wind Dir Waves Ship Positions

Atlantic Elm

Last reported at 2016-Dec-01 02:33 UTC. Time now 2016-Dec-02 18:13 UTC.
Position N 38°17' E 121°23'.

Length 190 m; draft 10.2 m.

Type: Ship (hazmat cat A). MMSI: 229081000.

Date/timePositionNaut miles runAvg speedWind from/ knotsBaromVisibWave heightAir tempDewpointWater temp
2016-Dec-01 02:33N 38°17' E 121°23'1212.5
2016-Dec-01 01:33N 38°24' E 121°10'1312.8
2016-Dec-01 00:33N 38°31' E 120°56'1513.1
2016-Nov-30 23:24N 38°40' E 120°40'90 6.1
2016-Nov-30 08:33N 39°54' E 119°35'0 0.0
2016-Nov-30 07:27N 39°54' E 119°35'0 0.0
2016-Nov-30 06:18N 39°54' E 119°35'0 0.0
2016-Nov-30 05:30N 39°55' E 119°35'0 0.0
2016-Nov-30 04:30N 39°54' E 119°35'0 0.0
2016-Nov-30 01:18N 39°54' E 119°35'0 0.0
2016-Nov-30 00:29N 39°55' E 119°35'0 0.0
2016-Nov-29 21:06N 39°54' E 119°35'0 0.0
2016-Nov-29 19:17N 39°54' E 119°35'0 0.0
2016-Nov-29 16:23N 39°54' E 119°35'0 0.0
2016-Nov-29 14:06N 39°54' E 119°35'0 0.0
2016-Nov-29 13:30N 39°54' E 119°35'0 0.0
2016-Nov-29 12:30N 39°54' E 119°35'0 0.0
2016-Nov-29 11:24N 39°54' E 119°35'0 0.0
2016-Nov-29 10:29N 39°54' E 119°35'0 0.0
2016-Nov-29 09:30N 39°54' E 119°35'0 0.0
2016-Nov-29 08:17N 39°54' E 119°35'0 0.0
2016-Nov-29 07:29N 39°54' E 119°35'0 0.0
2016-Nov-29 06:30N 39°54' E 119°35'0 0.0
2016-Nov-29 05:24N 39°54' E 119°35'0 0.0
2016-Nov-29 04:30N 39°54' E 119°35'0 0.0
2016-Nov-29 03:29N 39°54' E 119°35'0 0.0
2016-Nov-29 02:24N 39°54' E 119°35'0 0.0
2016-Nov-29 01:29N 39°54' E 119°35'0 0.0
2016-Nov-29 00:29N 39°54' E 119°35'0 0.0
2016-Nov-28 23:29N 39°54' E 119°35'0 0.0
2016-Nov-28 22:30N 39°54' E 119°35'0 0.0
2016-Nov-28 21:29N 39°54' E 119°35'0 0.0
2016-Nov-28 20:29N 39°54' E 119°35'0 0.0
2016-Nov-28 19:29N 39°54' E 119°35'0 0.0
2016-Nov-28 18:29N 39°54' E 119°35'0 0.0
2016-Nov-28 17:29N 39°54' E 119°35'0 0.0
2016-Nov-28 16:29N 39°55' E 119°35'0 0.0
2016-Nov-28 15:29N 39°54' E 119°35'0 0.0
2016-Nov-28 14:29N 39°54' E 119°35'0 0.0
2016-Nov-28 13:29N 39°54' E 119°35'0 0.0
2016-Nov-28 12:29N 39°54' E 119°35'0 0.0
2016-Nov-28 11:23N 39°54' E 119°35'0 0.0
2016-Nov-28 10:29N 39°54' E 119°35'0 0.0
2016-Nov-28 09:29N 39°54' E 119°35'0 0.0
2016-Nov-28 08:29N 39°54' E 119°35'0 0.2
2016-Nov-28 07:33N 39°54' E 119°35'7 6.6
2016-Nov-28 06:33N 39°49' E 119°40'3 3.0
2016-Nov-28 05:33N 39°46' E 119°42'1 0.8
2016-Nov-28 04:33N 39°47' E 119°43'1 1.1
2016-Nov-28 03:15N 39°46' E 119°45'1 1.2
2016-Nov-28 02:30N 39°46' E 119°45'5 5.0
2016-Nov-28 01:33N 39°45' E 119°51'7 7.0
2016-Nov-28 00:31N 39°46' E 120°00'9910.6
2016-Nov-27 15:13N 40°18' E 122°02'2 2.1
2016-Nov-27 14:13N 40°18' E 122°05'0 0.0
2016-Nov-27 13:31N 40°18' E 122°05'0 0.0
2016-Nov-27 11:13N 40°18' E 122°05'0 0.0
2016-Nov-27 10:13N 40°18' E 122°05'0 0.0
2016-Nov-27 09:31N 40°18' E 122°05'0 0.0
2016-Nov-27 08:13N 40°18' E 122°05'0 0.0
2016-Nov-27 07:32N 40°18' E 122°05'0 0.0
2016-Nov-25 14:13N 40°18' E 122°05'0 0.0
2016-Nov-25 07:07N 40°18' E 122°05'0 0.0
2016-Nov-25 06:25N 40°18' E 122°05'0 0.0
2016-Nov-25 03:33N 40°18' E 122°05'3 2.6
2016-Nov-25 02:30N 40°18' E 122°01'114 3.9
2016-Nov-23 21:33N 38°34' E 121°00'  

Dump ship's entire track history